Rio Mitong — D6GE6 — position and weather

sailwx.info

Track history (hours):
 
Tides and Currents Weather Stations Pressure Air Temp Water Temp Dewpoint Dewpoint Depression Visibility Wind Speed Wind Dir Waves Ship Positions

Rio Mitong

Last reported at 2017-Sep-03 19:03 UTC. Time now 2017-Sep-23 07:44 UTC.
Position N 26°48' W 015°08'.
Warning: this ship's position is 19 days out of date.

Length 122 m; draft 8.5 m.

Type: Cargo ship. MMSI: 616999031.

Date/timePositionNaut miles runAvg speedWind from/ knotsBaromVisibWave heightAir tempDewpointWater temp
2017-Sep-03 19:03N 26°48' W 015°08'310.9
2017-Sep-03 18:44N 26°50' W 015°06'3910.6
2017-Sep-03 15:03N 27°17' W 014°34'010.3
2017-Sep-03 15:00N 27°18' W 014°33'2110.4
2017-Sep-03 12:58N 27°33' W 014°16'1211.1
2017-Sep-03 11:54N 27°40' W 014°06'810.6
2017-Sep-03 11:11N 27°46' W 014°00'310.5
2017-Sep-03 10:54N 27°48' W 013°58'510.2
2017-Sep-03 10:22N 27°52' W 013°53'410.3
2017-Sep-03 10:00N 27°54' W 013°50'510.4
2017-Sep-03 09:30N 27°58' W 013°46'510.3
2017-Sep-03 08:59N 28°02' W 013°42'510.3
2017-Sep-03 08:29N 28°07' W 013°40'510.4
2017-Sep-03 07:58N 28°11' W 013°37'710.4
2017-Sep-03 07:19N 28°18' W 013°34'410.6
2017-Sep-03 06:59N 28°21' W 013°32'1010.8
2017-Sep-03 06:06N 28°30' W 013°28'110.9
2017-Sep-03 06:00N 28°31' W 013°27'610.9
2017-Sep-03 05:30N 28°36' W 013°25'710.9
2017-Sep-03 04:50N 28°42' W 013°21'410.7
2017-Sep-03 04:26N 28°46' W 013°19'510.8
2017-Sep-03 04:00N 28°50' W 013°17'510.5
2017-Sep-03 03:29N 28°55' W 013°14'510.4
2017-Sep-03 03:00N 28°60' W 013°12'510.3
2017-Sep-03 02:30N 29°04' W 013°09'25710.1
2017-Sep-02 01:00N 33°06' W 011°25'1810.1
2017-Sep-01 23:15N 33°22' W 011°18'214 9.9
2017-Sep-01 01:32N 36°45' W 009°52'1 9.2
2017-Sep-01 01:29N 36°45' W 009°52'8 9.3
2017-Sep-01 00:37N 36°52' W 009°48'1 9.2
2017-Sep-01 00:30N 36°53' W 009°48'5 9.4
2017-Sep-01 00:00N 36°58' W 009°45'5 9.9
2017-Aug-31 23:29N 37°02' W 009°43'510.0
2017-Aug-31 23:00N 37°07' W 009°42'510.1
2017-Aug-31 22:30N 37°12' W 009°41'510.2
2017-Aug-31 22:00N 37°17' W 009°41'4 8.1
2017-Aug-31 21:30N 37°21' W 009°39'4 8.5
2017-Aug-31 21:00N 37°23' W 009°34'5 9.4
2017-Aug-31 20:31N 37°27' W 009°32'5 9.7
2017-Aug-31 20:00N 37°32' W 009°29'5 9.5
2017-Aug-31 19:30N 37°36' W 009°27'5 9.9
2017-Aug-31 19:01N 37°41' W 009°24'510.0
2017-Aug-31 18:30N 37°45' W 009°22'510.3
2017-Aug-31 18:00N 37°50' W 009°19'510.3
2017-Aug-31 17:30N 37°55' W 009°17'5 9.9
2017-Aug-31 17:00N 37°59' W 009°15'510.2
2017-Aug-31 16:30N 38°04' W 009°13'510.1
2017-Aug-31 16:00N 38°09' W 009°11'510.1
2017-Aug-31 15:30N 38°14' W 009°09'5 9.6
2017-Aug-31 15:00N 38°18' W 009°05'5 9.7
2017-Aug-31 14:31N 38°22' W 009°02'510.1
2017-Aug-31 14:00N 38°26' W 008°59'510.0
2017-Aug-31 13:30N 38°30' W 008°55'2 3.8
2017-Aug-31 13:00N 38°31' W 008°53'0 0.0
2017-Aug-31 12:30N 38°31' W 008°53'0 0.0
2017-Aug-31 12:00N 38°31' W 008°53'0 0.0
2017-Aug-31 11:30N 38°31' W 008°53'0 0.0
2017-Aug-31 11:00N 38°31' W 008°53'0 0.0
2017-Aug-31 10:30N 38°31' W 008°53'0 0.0
2017-Aug-31 09:55N 38°31' W 008°53'0 0.0
2017-Aug-31 09:30N 38°31' W 008°53'0 0.0
2017-Aug-31 08:50N 38°31' W 008°53'0 0.0
2017-Aug-31 08:30N 38°31' W 008°53'0 0.0
2017-Aug-31 08:00N 38°31' W 008°53'0 0.0
2017-Aug-31 07:30N 38°31' W 008°53'0 0.0
2017-Aug-31 07:00N 38°31' W 008°53'0 0.0
2017-Aug-31 06:30N 38°31' W 008°53'0 0.0
2017-Aug-31 06:00N 38°31' W 008°53'0 0.0
2017-Aug-31 05:30N 38°31' W 008°53'0 0.0
2017-Aug-31 05:00N 38°31' W 008°53'0 0.0
2017-Aug-31 04:30N 38°31' W 008°53'0 0.0
2017-Aug-31 04:00N 38°31' W 008°53'0 0.0
2017-Aug-31 03:30N 38°31' W 008°53'0 0.0
2017-Aug-31 03:00N 38°31' W 008°53'0 0.0
2017-Aug-31 02:30N 38°31' W 008°53'0 0.0
2017-Aug-31 02:00N 38°31' W 008°53'0 0.0
2017-Aug-31 01:30N 38°31' W 008°53'0 0.0
2017-Aug-31 01:00N 38°31' W 008°53'0 0.0
2017-Aug-31 00:30N 38°31' W 008°53'0 0.0
2017-Aug-31 00:00N 38°31' W 008°53'0 0.0
2017-Aug-30 23:30N 38°31' W 008°53'0 0.0
2017-Aug-30 22:59N 38°31' W 008°53'0 0.0
2017-Aug-30 22:30N 38°31' W 008°53'0 0.0
2017-Aug-30 22:00N 38°31' W 008°53'1 2.4
2017-Aug-30 21:26N 38°31' W 008°55'2 3.0
2017-Aug-30 20:55N 38°30' W 008°56'0 0.0
2017-Aug-30 20:28N 38°30' W 008°56'0 0.0
2017-Aug-30 19:58N 38°30' W 008°56'0 0.0
2017-Aug-30 19:28N 38°30' W 008°56'0 0.0
2017-Aug-30 18:58N 38°30' W 008°56'0 0.0
2017-Aug-30 18:28N 38°30' W 008°56'0 0.0
2017-Aug-30 17:58N 38°30' W 008°56'0 0.0
2017-Aug-30 17:28N 38°30' W 008°56'0 0.0
2017-Aug-30 16:58N 38°30' W 008°56'0 0.0
2017-Aug-30 16:28N 38°30' W 008°56'0 0.0
2017-Aug-30 15:58N 38°30' W 008°56'0 0.0
2017-Aug-30 15:28N 38°30' W 008°56'0 0.0
2017-Aug-30 14:58N 38°30' W 008°56'0 0.0
2017-Aug-30 14:28N 38°30' W 008°56'0 0.0
2017-Aug-30 13:58N 38°30' W 008°56'0 0.0
2017-Aug-30 13:28N 38°30' W 008°56'0 0.0
2017-Aug-30 12:58N 38°30' W 008°56'0 0.0
2017-Aug-30 12:28N 38°30' W 008°56'0 0.0
2017-Aug-30 11:58N 38°30' W 008°56'0 0.0
2017-Aug-30 11:28N 38°30' W 008°56'0 0.0
2017-Aug-30 10:58N 38°30' W 008°56'0 0.0
2017-Aug-30 10:28N 38°30' W 008°56'0 0.0
2017-Aug-30 09:58N 38°30' W 008°56'0 0.0
2017-Aug-30 09:28N 38°30' W 008°56'0 0.0
2017-Aug-30 08:58N 38°30' W 008°56'0 0.0
2017-Aug-30 08:28N 38°30' W 008°56'0 0.0
2017-Aug-30 07:55N 38°30' W 008°56'0 0.0
2017-Aug-30 07:25N 38°30' W 008°56'0 0.0
2017-Aug-30 06:58N 38°30' W 008°56'0 0.0
2017-Aug-30 06:28N 38°30' W 008°56'0 0.0
2017-Aug-30 05:58N 38°30' W 008°56'0 0.0
2017-Aug-30 05:28N 38°30' W 008°56'0 0.0
2017-Aug-30 04:58N 38°30' W 008°56'0 0.0
2017-Aug-30 04:25N 38°30' W 008°56'0 0.0
2017-Aug-30 03:58N 38°30' W 008°56'0 0.0
2017-Aug-30 03:28N 38°30' W 008°56'0 0.0
2017-Aug-30 02:58N 38°30' W 008°56'0 0.0
2017-Aug-30 02:28N 38°30' W 008°56'0 0.0
2017-Aug-30 01:58N 38°30' W 008°56'0 0.0
2017-Aug-30 01:28N 38°30' W 008°56'0 0.0
2017-Aug-30 00:55N 38°30' W 008°56'0 0.0
2017-Aug-30 00:28N 38°30' W 008°56'0 0.0
2017-Aug-29 23:58N 38°30' W 008°56'0 0.0
2017-Aug-29 23:28N 38°30' W 008°56'0 0.0
2017-Aug-29 22:58N 38°30' W 008°56'0 0.0
2017-Aug-29 22:28N 38°30' W 008°56'0 0.0
2017-Aug-29 21:58N 38°30' W 008°56'0 0.0
2017-Aug-29 21:28N 38°30' W 008°56'0 0.0
2017-Aug-29 20:55N 38°30' W 008°56'0 0.0
2017-Aug-29 20:28N 38°30' W 008°56'0 0.0
2017-Aug-29 19:58N 38°30' W 008°56'0 0.0
2017-Aug-29 19:25N 38°30' W 008°56'0 0.0
2017-Aug-29 18:58N 38°30' W 008°56'0 0.0
2017-Aug-29 18:28N 38°30' W 008°56'0 0.0
2017-Aug-29 17:55N 38°30' W 008°56'0 0.0
2017-Aug-29 17:28N 38°30' W 008°56'0 0.0
2017-Aug-29 16:58N 38°30' W 008°56'0 0.0
2017-Aug-29 16:28N 38°30' W 008°56'0 0.0
2017-Aug-29 15:49N 38°30' W 008°56'0 0.0
2017-Aug-29 15:28N 38°30' W 008°56'0 0.0
2017-Aug-29 14:58N 38°30' W 008°56'0 0.0
2017-Aug-29 14:28N 38°30' W 008°56'0 0.0
2017-Aug-29 13:52N 38°30' W 008°56'0 0.0
2017-Aug-29 13:28N 38°30' W 008°56'0 0.0
2017-Aug-29 12:55N 38°30' W 008°56'0 0.0
2017-Aug-29 12:28N 38°30' W 008°56'0 0.0
2017-Aug-29 11:58N 38°30' W 008°56'0 0.0
2017-Aug-29 11:28N 38°30' W 008°56'0 0.0
2017-Aug-29 10:58N 38°30' W 008°56'0 0.0
2017-Aug-29 10:28N 38°30' W 008°56'0 0.0
2017-Aug-29 09:58N 38°30' W 008°56'0 0.0
2017-Aug-29 09:28N 38°30' W 008°56'0 0.0
2017-Aug-29 08:55N 38°30' W 008°56'0 0.0
2017-Aug-29 08:28N 38°30' W 008°56'0 0.0
2017-Aug-29 07:58N 38°30' W 008°56'0 0.0
2017-Aug-29 06:01N 38°30' W 008°56'0 0.0
2017-Aug-29 05:55N 38°30' W 008°56'0 0.0
2017-Aug-29 05:25N 38°30' W 008°56'0 0.0
2017-Aug-29 04:55N 38°30' W 008°56'0 0.0
2017-Aug-29 04:28N 38°30' W 008°56'0 0.0
2017-Aug-29 03:58N 38°30' W 008°56'0 0.0
2017-Aug-29 03:28N 38°30' W 008°56'0 0.0
2017-Aug-29 02:58N 38°30' W 008°56'0 0.0
2017-Aug-29 02:25N 38°30' W 008°56'0 0.0
2017-Aug-29 01:58N 38°30' W 008°56'0 0.0
2017-Aug-29 01:28N 38°30' W 008°56'0 0.0
2017-Aug-29 00:58N 38°30' W 008°56'0 0.0
2017-Aug-29 00:28N 38°30' W 008°56'0 0.0
2017-Aug-28 23:58N 38°30' W 008°56'0 0.0
2017-Aug-28 23:28N 38°30' W 008°56'0 0.0
2017-Aug-28 22:58N 38°30' W 008°56'0 0.0
2017-Aug-28 22:28N 38°30' W 008°56'0 0.0
2017-Aug-28 21:58N 38°30' W 008°56'0 0.0
2017-Aug-28 21:25N 38°30' W 008°56'0 0.0
2017-Aug-28 20:58N 38°30' W 008°56'0 0.0
2017-Aug-28 20:25N 38°30' W 008°56'0 0.0
2017-Aug-28 19:58N 38°30' W 008°56'0 0.0
2017-Aug-28 19:28N 38°30' W 008°56'0 0.0
2017-Aug-28 18:58N 38°30' W 008°56'0 0.0
2017-Aug-28 18:28N 38°30' W 008°56'0 0.0
2017-Aug-28 17:58N 38°30' W 008°56'0 0.0
2017-Aug-28 17:28N 38°30' W 008°56'0 0.0
2017-Aug-28 16:58N 38°30' W 008°56'0 0.0
2017-Aug-28 16:28N 38°30' W 008°56'0 0.0
2017-Aug-28 15:58N 38°30' W 008°56'0 0.0
2017-Aug-28 15:28N 38°30' W 008°56'0 0.0
2017-Aug-28 14:55N 38°30' W 008°56'0 0.0
2017-Aug-28 14:28N 38°30' W 008°56'0 0.0
2017-Aug-28 13:58N 38°30' W 008°56'0 0.0
2017-Aug-28 13:28N 38°30' W 008°56'0 0.0
2017-Aug-28 12:58N 38°30' W 008°56'0 0.0
2017-Aug-28 12:28N 38°30' W 008°56'0 0.0
2017-Aug-28 11:58N 38°30' W 008°56'0 0.0
2017-Aug-28 11:28N 38°30' W 008°56'0 0.0
2017-Aug-28 10:55N 38°30' W 008°56'0 0.0
2017-Aug-28 10:28N 38°30' W 008°56'0 0.0
2017-Aug-28 09:58N 38°30' W 008°56'0 0.0
2017-Aug-28 09:28N 38°30' W 008°56'0 0.0
2017-Aug-28 08:58N 38°30' W 008°56'0 0.0
2017-Aug-28 08:28N 38°30' W 008°56'0 0.0
2017-Aug-28 07:58N 38°30' W 008°56'0 0.0
2017-Aug-28 07:28N 38°30' W 008°56'0 0.0
2017-Aug-28 06:58N 38°30' W 008°56'0 0.0
2017-Aug-28 06:28N 38°30' W 008°56'0 0.0
2017-Aug-28 05:58N 38°30' W 008°56'0 0.0
2017-Aug-28 05:28N 38°30' W 008°56'0 0.0
2017-Aug-28 04:58N 38°30' W 008°56'0 0.0
2017-Aug-28 04:25N 38°30' W 008°56'0 0.0
2017-Aug-28 03:58N 38°30' W 008°56'0 0.0
2017-Aug-28 03:28N 38°30' W 008°56'0 0.0
2017-Aug-28 02:58N 38°30' W 008°56'0 0.0
2017-Aug-28 02:25N 38°30' W 008°56'0 0.0
2017-Aug-28 01:58N 38°30' W 008°56'0 0.0
2017-Aug-28 01:28N 38°30' W 008°56'0 0.0
2017-Aug-28 00:58N 38°30' W 008°56'0 0.0
2017-Aug-28 00:28N 38°30' W 008°56'0 0.0
2017-Aug-27 23:58N 38°30' W 008°56'0 0.0
2017-Aug-27 23:28N 38°30' W 008°56'0 0.0
2017-Aug-27 22:58N 38°30' W 008°56'0 0.0
2017-Aug-27 22:28N 38°30' W 008°56'0 0.0
2017-Aug-27 21:58N 38°30' W 008°56'0 0.0
2017-Aug-27 21:28N 38°30' W 008°56'0 0.0
2017-Aug-27 20:58N 38°30' W 008°56'0 0.0
2017-Aug-27 20:28N 38°30' W 008°56'0 0.0
2017-Aug-27 19:58N 38°30' W 008°56'0 0.0
2017-Aug-27 19:28N 38°30' W 008°56'0 0.0
2017-Aug-27 18:58N 38°30' W 008°56'0 0.0
2017-Aug-27 18:28N 38°30' W 008°56'0 0.0
2017-Aug-27 17:58N 38°30' W 008°56'0 0.0
2017-Aug-27 17:28N 38°30' W 008°56'0 0.0
2017-Aug-27 16:58N 38°30' W 008°56'0 0.0
2017-Aug-27 16:25N 38°30' W 008°56'0 0.0
2017-Aug-27 15:58N 38°30' W 008°56'0 0.0
2017-Aug-27 15:28N 38°30' W 008°56'0 0.0
2017-Aug-27 14:58N 38°30' W 008°56'0 0.0
2017-Aug-27 14:28N 38°30' W 008°56'0 0.0
2017-Aug-27 13:58N 38°30' W 008°56'0 0.0
2017-Aug-27 13:28N 38°30' W 008°56'0 0.0
2017-Aug-27 12:58N 38°30' W 008°56'0 0.0
2017-Aug-27 12:28N 38°30' W 008°56'0 0.0
2017-Aug-27 11:58N 38°30' W 008°56'0 0.0
2017-Aug-27 11:28N 38°30' W 008°56'0 0.0
2017-Aug-27 10:58N 38°30' W 008°56'0 0.0
2017-Aug-27 10:25N 38°30' W 008°56'0 0.0
2017-Aug-27 09:46N 38°30' W 008°56'0 0.0
2017-Aug-27 09:28N 38°30' W 008°56'0 0.0
2017-Aug-27 08:58N 38°30' W 008°56'0 0.0
2017-Aug-27 08:28N 38°30' W 008°56'0 0.0
2017-Aug-27 07:58N 38°30' W 008°56'0 0.0
2017-Aug-27 07:25N 38°30' W 008°56'0 0.0
2017-Aug-27 06:58N 38°30' W 008°56'0 0.0
2017-Aug-27 06:28N 38°30' W 008°56'0 0.4
2017-Aug-27 05:59N 38°30' W 008°56'2 3.1
2017-Aug-27 05:21N 38°31' W 008°54'0 0.0
2017-Aug-27 05:00N 38°31' W 008°54'0 0.0
2017-Aug-27 04:24N 38°31' W 008°54'0 0.0
2017-Aug-27 04:00N 38°31' W 008°54'0 0.0
2017-Aug-27 03:30N 38°31' W 008°54'0 0.0
2017-Aug-27 03:00N 38°31' W 008°54'0 0.0
2017-Aug-27 02:30N 38°31' W 008°54'0 0.0
2017-Aug-27 01:48N 38°31' W 008°54'0 0.0
2017-Aug-27 01:30N 38°31' W 008°54'0 0.0
2017-Aug-27 00:48N 38°31' W 008°54'0 0.0
2017-Aug-27 00:27N 38°31' W 008°54'0 0.0
2017-Aug-27 00:00N 38°31' W 008°54'0 0.0
2017-Aug-26 23:30N 38°31' W 008°54'0 0.1
2017-Aug-26 21:54N 38°31' W 008°54'0 0.0
2017-Aug-26 21:30N 38°31' W 008°54'0 0.0
2017-Aug-26 21:00N 38°31' W 008°54'0 0.0
2017-Aug-26 20:30N 38°31' W 008°54'0 0.1
2017-Aug-26 19:57N 38°31' W 008°54'0 0.1
2017-Aug-26 19:30N 38°31' W 008°54'0 0.1
2017-Aug-26 18:54N 38°31' W 008°54'0 0.1
2017-Aug-26 18:30N 38°31' W 008°54'0 0.0
2017-Aug-26 18:00N 38°31' W 008°54'0 0.0
2017-Aug-26 17:30N 38°31' W 008°54'0 0.0
2017-Aug-26 17:00N 38°31' W 008°54'0 0.0
2017-Aug-26 16:30N 38°31' W 008°54'0 0.0
2017-Aug-26 16:00N 38°31' W 008°54'0 0.0
2017-Aug-26 15:30N 38°31' W 008°54'0 0.0
2017-Aug-26 15:00N 38°31' W 008°54'0 0.0
2017-Aug-26 14:00N 38°31' W 008°54'0 0.0
2017-Aug-26 13:30N 38°31' W 008°54'0 0.0
2017-Aug-26 13:00N 38°31' W 008°54'0 0.0
2017-Aug-26 12:30N 38°31' W 008°54'0 0.0
2017-Aug-26 12:00N 38°31' W 008°54'0 0.0
2017-Aug-26 11:30N 38°31' W 008°54'0 0.1
2017-Aug-26 10:36N 38°31' W 008°54'0 0.1
2017-Aug-26 10:30N 38°31' W 008°54'0 0.1
2017-Aug-26 09:57N 38°31' W 008°54'0 0.1
2017-Aug-26 09:27N 38°31' W 008°54'0 0.0
2017-Aug-26 08:57N 38°31' W 008°54'0 0.0
2017-Aug-26 08:27N 38°31' W 008°54'0 0.0
2017-Aug-26 08:00N 38°31' W 008°54'0 0.0
2017-Aug-26 07:30N 38°31' W 008°54'0 0.1
2017-Aug-26 07:00N 38°31' W 008°54'0 0.0
2017-Aug-26 06:27N 38°31' W 008°54'0 0.1
2017-Aug-26 06:00N 38°31' W 008°54'0 0.0
2017-Aug-26 05:30N 38°31' W 008°54'0 0.0
2017-Aug-26 04:54N 38°31' W 008°54'0 0.0
2017-Aug-26 04:30N 38°31' W 008°54'0 0.0
2017-Aug-26 04:00N 38°31' W 008°54'0 0.0
2017-Aug-26 03:30N 38°31' W 008°54'0 0.0
2017-Aug-26 03:00N 38°31' W 008°54'0 0.0
2017-Aug-26 02:30N 38°31' W 008°54'0 0.0
2017-Aug-26 01:57N 38°31' W 008°54'0 0.0
2017-Aug-26 01:30N 38°31' W 008°54'0 0.0
2017-Aug-26 01:00N 38°31' W 008°54'0 0.0
2017-Aug-26 00:30N 38°31' W 008°54'0 0.0
2017-Aug-26 00:00N 38°31' W 008°54'0 0.1
2017-Aug-25 23:30N 38°31' W 008°54'0 0.1
2017-Aug-25 22:57N 38°31' W 008°54'0 0.0
2017-Aug-25 22:30N 38°31' W 008°54'0 0.0
2017-Aug-25 21:57N 38°31' W 008°54'0 0.0
2017-Aug-25 21:30N 38°31' W 008°54'0 0.0
2017-Aug-25 21:00N 38°31' W 008°54'0 0.0
2017-Aug-25 20:30N 38°31' W 008°54'0 0.0
2017-Aug-25 19:54N 38°31' W 008°54'0 0.0
2017-Aug-25 19:30N 38°31' W 008°54'0 0.1
2017-Aug-25 19:00N 38°31' W 008°54'0 0.2
2017-Aug-25 18:30N 38°31' W 008°54'0 0.1
2017-Aug-25 17:57N 38°31' W 008°54'0 0.1
2017-Aug-25 17:30N 38°31' W 008°54'0 0.0
2017-Aug-25 17:00N 38°31' W 008°54'0 0.0
2017-Aug-25 16:30N 38°31' W 008°54'0 0.0
2017-Aug-25 16:00N 38°31' W 008°54'0 0.0
2017-Aug-25 15:30N 38°31' W 008°54'0 0.0
2017-Aug-25 15:00N 38°31' W 008°54'0 0.0
2017-Aug-25 14:30N 38°31' W 008°54'0 0.0
2017-Aug-25 13:30N 38°31' W 008°54'0 0.0
2017-Aug-25 13:00N 38°31' W 008°54'0 0.0
2017-Aug-25 12:30N 38°31' W 008°54'0 0.0
2017-Aug-25 12:00N 38°31' W 008°54'0 0.0
2017-Aug-25 11:30N 38°31' W 008°54'0 0.2
2017-Aug-25 11:00N 38°31' W 008°54'0 0.2
2017-Aug-25 10:30N 38°31' W 008°54'0 0.0
2017-Aug-25 09:54N 38°31' W 008°54'0 0.0
2017-Aug-25 09:30N 38°31' W 008°54'0 0.0
2017-Aug-25 08:57N 38°31' W 008°54'0 0.0
2017-Aug-25 08:24N 38°31' W 008°54'0 0.0
2017-Aug-25 08:00N 38°31' W 008°54'0 0.0
2017-Aug-25 07:30N 38°31' W 008°54'0 0.0
2017-Aug-25 06:54N 38°31' W 008°54'0 0.0
2017-Aug-25 06:30N 38°31' W 008°54'0 0.1
2017-Aug-25 06:00N 38°31' W 008°54'0 0.1
2017-Aug-25 05:27N 38°31' W 008°54'0 0.1
2017-Aug-25 05:00N 38°31' W 008°54'0 0.0
2017-Aug-25 04:12N 38°31' W 008°54'0 0.0
2017-Aug-25 03:57N 38°31' W 008°54'0 0.0
2017-Aug-25 03:30N 38°31' W 008°54'0 0.0
2017-Aug-25 02:51N 38°31' W 008°54'0 0.0
2017-Aug-25 02:30N 38°31' W 008°54'0 0.0
2017-Aug-25 01:45N 38°31' W 008°54'0 0.0
2017-Aug-25 01:27N 38°31' W 008°54'0 0.0
2017-Aug-25 01:00N 38°31' W 008°54'0 0.0
2017-Aug-25 00:30N 38°31' W 008°54'0 0.0
2017-Aug-24 23:51N 38°31' W 008°54'0 0.0
2017-Aug-24 23:30N 38°31' W 008°54'0 0.1
2017-Aug-24 23:00N 38°31' W 008°54'0 0.1
2017-Aug-24 22:30N 38°31' W 008°54'0 0.0
2017-Aug-24 22:00N 38°31' W 008°54'0 0.1
2017-Aug-24 21:18N 38°31' W 008°54'0 0.0
2017-Aug-24 21:00N 38°31' W 008°54'0 0.0
2017-Aug-24 20:30N 38°31' W 008°54'0 0.0
2017-Aug-24 19:54N 38°31' W 008°54'0 0.0
2017-Aug-24 19:24N 38°31' W 008°54'  
Track history (hours):
 
Tides and Currents Weather Stations Pressure Air Temp Water Temp Dewpoint Dewpoint Depression Visibility Wind Speed Wind Dir Waves Ship Positions

Rio Mitong

Last reported at 2017-Sep-03 19:03 UTC. Time now 2017-Sep-23 07:44 UTC.
Position N 26°48' W 015°08'.
Warning: this ship's position is 19 days out of date.

Length 122 m; draft 8.5 m.

Type: Cargo ship. MMSI: 616999031.

Date/timePositionNaut miles runAvg speedWind from/ knotsBaromVisibWave heightAir tempDewpointWater temp
2017-Sep-03 19:03N 26°48' W 015°08'310.9
2017-Sep-03 18:44N 26°50' W 015°06'3910.6
2017-Sep-03 15:03N 27°17' W 014°34'010.3
2017-Sep-03 15:00N 27°18' W 014°33'2110.4
2017-Sep-03 12:58N 27°33' W 014°16'1211.1
2017-Sep-03 11:54N 27°40' W 014°06'810.6
2017-Sep-03 11:11N 27°46' W 014°00'310.5
2017-Sep-03 10:54N 27°48' W 013°58'510.2
2017-Sep-03 10:22N 27°52' W 013°53'410.3
2017-Sep-03 10:00N 27°54' W 013°50'510.4
2017-Sep-03 09:30N 27°58' W 013°46'510.3
2017-Sep-03 08:59N 28°02' W 013°42'510.3
2017-Sep-03 08:29N 28°07' W 013°40'510.4
2017-Sep-03 07:58N 28°11' W 013°37'710.4
2017-Sep-03 07:19N 28°18' W 013°34'410.6
2017-Sep-03 06:59N 28°21' W 013°32'1010.8
2017-Sep-03 06:06N 28°30' W 013°28'110.9
2017-Sep-03 06:00N 28°31' W 013°27'610.9
2017-Sep-03 05:30N 28°36' W 013°25'710.9
2017-Sep-03 04:50N 28°42' W 013°21'410.7
2017-Sep-03 04:26N 28°46' W 013°19'510.8
2017-Sep-03 04:00N 28°50' W 013°17'510.5
2017-Sep-03 03:29N 28°55' W 013°14'510.4
2017-Sep-03 03:00N 28°60' W 013°12'510.3
2017-Sep-03 02:30N 29°04' W 013°09'25710.1
2017-Sep-02 01:00N 33°06' W 011°25'1810.1
2017-Sep-01 23:15N 33°22' W 011°18'214 9.9
2017-Sep-01 01:32N 36°45' W 009°52'1 9.2
2017-Sep-01 01:29N 36°45' W 009°52'8 9.3
2017-Sep-01 00:37N 36°52' W 009°48'1 9.2
2017-Sep-01 00:30N 36°53' W 009°48'5 9.4
2017-Sep-01 00:00N 36°58' W 009°45'5 9.9
2017-Aug-31 23:29N 37°02' W 009°43'510.0
2017-Aug-31 23:00N 37°07' W 009°42'510.1
2017-Aug-31 22:30N 37°12' W 009°41'510.2
2017-Aug-31 22:00N 37°17' W 009°41'4 8.1
2017-Aug-31 21:30N 37°21' W 009°39'4 8.5
2017-Aug-31 21:00N 37°23' W 009°34'5 9.4
2017-Aug-31 20:31N 37°27' W 009°32'5 9.7
2017-Aug-31 20:00N 37°32' W 009°29'5 9.5
2017-Aug-31 19:30N 37°36' W 009°27'5 9.9
2017-Aug-31 19:01N 37°41' W 009°24'510.0
2017-Aug-31 18:30N 37°45' W 009°22'510.3
2017-Aug-31 18:00N 37°50' W 009°19'510.3
2017-Aug-31 17:30N 37°55' W 009°17'5 9.9
2017-Aug-31 17:00N 37°59' W 009°15'510.2
2017-Aug-31 16:30N 38°04' W 009°13'510.1
2017-Aug-31 16:00N 38°09' W 009°11'510.1
2017-Aug-31 15:30N 38°14' W 009°09'5 9.6
2017-Aug-31 15:00N 38°18' W 009°05'5 9.7
2017-Aug-31 14:31N 38°22' W 009°02'510.1
2017-Aug-31 14:00N 38°26' W 008°59'510.0
2017-Aug-31 13:30N 38°30' W 008°55'2 3.8
2017-Aug-31 13:00N 38°31' W 008°53'0 0.0
2017-Aug-31 12:30N 38°31' W 008°53'0 0.0
2017-Aug-31 12:00N 38°31' W 008°53'0 0.0
2017-Aug-31 11:30N 38°31' W 008°53'0 0.0
2017-Aug-31 11:00N 38°31' W 008°53'0 0.0
2017-Aug-31 10:30N 38°31' W 008°53'0 0.0
2017-Aug-31 09:55N 38°31' W 008°53'0 0.0
2017-Aug-31 09:30N 38°31' W 008°53'0 0.0
2017-Aug-31 08:50N 38°31' W 008°53'0 0.0
2017-Aug-31 08:30N 38°31' W 008°53'0 0.0
2017-Aug-31 08:00N 38°31' W 008°53'0 0.0
2017-Aug-31 07:30N 38°31' W 008°53'0 0.0
2017-Aug-31 07:00N 38°31' W 008°53'0 0.0
2017-Aug-31 06:30N 38°31' W 008°53'0 0.0
2017-Aug-31 06:00N 38°31' W 008°53'0 0.0
2017-Aug-31 05:30N 38°31' W 008°53'0 0.0
2017-Aug-31 05:00N 38°31' W 008°53'0 0.0
2017-Aug-31 04:30N 38°31' W 008°53'0 0.0
2017-Aug-31 04:00N 38°31' W 008°53'0 0.0
2017-Aug-31 03:30N 38°31' W 008°53'0 0.0
2017-Aug-31 03:00N 38°31' W 008°53'0 0.0
2017-Aug-31 02:30N 38°31' W 008°53'0 0.0
2017-Aug-31 02:00N 38°31' W 008°53'0 0.0
2017-Aug-31 01:30N 38°31' W 008°53'0 0.0
2017-Aug-31 01:00N 38°31' W 008°53'0 0.0
2017-Aug-31 00:30N 38°31' W 008°53'0 0.0
2017-Aug-31 00:00N 38°31' W 008°53'0 0.0
2017-Aug-30 23:30N 38°31' W 008°53'0 0.0
2017-Aug-30 22:59N 38°31' W 008°53'0 0.0
2017-Aug-30 22:30N 38°31' W 008°53'0 0.0
2017-Aug-30 22:00N 38°31' W 008°53'1 2.4
2017-Aug-30 21:26N 38°31' W 008°55'2 3.0
2017-Aug-30 20:55N 38°30' W 008°56'0 0.0
2017-Aug-30 20:28N 38°30' W 008°56'0 0.0
2017-Aug-30 19:58N 38°30' W 008°56'0 0.0
2017-Aug-30 19:28N 38°30' W 008°56'0 0.0
2017-Aug-30 18:58N 38°30' W 008°56'0 0.0
2017-Aug-30 18:28N 38°30' W 008°56'0 0.0
2017-Aug-30 17:58N 38°30' W 008°56'0 0.0
2017-Aug-30 17:28N 38°30' W 008°56'0 0.0
2017-Aug-30 16:58N 38°30' W 008°56'0 0.0
2017-Aug-30 16:28N 38°30' W 008°56'0 0.0
2017-Aug-30 15:58N 38°30' W 008°56'0 0.0
2017-Aug-30 15:28N 38°30' W 008°56'0 0.0
2017-Aug-30 14:58N 38°30' W 008°56'0 0.0
2017-Aug-30 14:28N 38°30' W 008°56'0 0.0
2017-Aug-30 13:58N 38°30' W 008°56'0 0.0
2017-Aug-30 13:28N 38°30' W 008°56'0 0.0
2017-Aug-30 12:58N 38°30' W 008°56'0 0.0
2017-Aug-30 12:28N 38°30' W 008°56'0 0.0
2017-Aug-30 11:58N 38°30' W 008°56'0 0.0
2017-Aug-30 11:28N 38°30' W 008°56'0 0.0
2017-Aug-30 10:58N 38°30' W 008°56'0 0.0
2017-Aug-30 10:28N 38°30' W 008°56'0 0.0
2017-Aug-30 09:58N 38°30' W 008°56'0 0.0
2017-Aug-30 09:28N 38°30' W 008°56'0 0.0
2017-Aug-30 08:58N 38°30' W 008°56'0 0.0
2017-Aug-30 08:28N 38°30' W 008°56'0 0.0
2017-Aug-30 07:55N 38°30' W 008°56'0 0.0
2017-Aug-30 07:25N 38°30' W 008°56'0 0.0
2017-Aug-30 06:58N 38°30' W 008°56'0 0.0
2017-Aug-30 06:28N 38°30' W 008°56'0 0.0
2017-Aug-30 05:58N 38°30' W 008°56'0 0.0
2017-Aug-30 05:28N 38°30' W 008°56'0 0.0
2017-Aug-30 04:58N 38°30' W 008°56'0 0.0
2017-Aug-30 04:25N 38°30' W 008°56'0 0.0
2017-Aug-30 03:58N 38°30' W 008°56'0 0.0
2017-Aug-30 03:28N 38°30' W 008°56'0 0.0
2017-Aug-30 02:58N 38°30' W 008°56'0 0.0
2017-Aug-30 02:28N 38°30' W 008°56'0 0.0
2017-Aug-30 01:58N 38°30' W 008°56'0 0.0
2017-Aug-30 01:28N 38°30' W 008°56'0 0.0
2017-Aug-30 00:55N 38°30' W 008°56'0 0.0
2017-Aug-30 00:28N 38°30' W 008°56'0 0.0
2017-Aug-29 23:58N 38°30' W 008°56'0 0.0
2017-Aug-29 23:28N 38°30' W 008°56'0 0.0
2017-Aug-29 22:58N 38°30' W 008°56'0 0.0
2017-Aug-29 22:28N 38°30' W 008°56'0 0.0
2017-Aug-29 21:58N 38°30' W 008°56'0 0.0
2017-Aug-29 21:28N 38°30' W 008°56'0 0.0
2017-Aug-29 20:55N 38°30' W 008°56'0 0.0
2017-Aug-29 20:28N 38°30' W 008°56'0 0.0
2017-Aug-29 19:58N 38°30' W 008°56'0 0.0
2017-Aug-29 19:25N 38°30' W 008°56'0 0.0
2017-Aug-29 18:58N 38°30' W 008°56'0 0.0
2017-Aug-29 18:28N 38°30' W 008°56'0 0.0
2017-Aug-29 17:55N 38°30' W 008°56'0 0.0
2017-Aug-29 17:28N 38°30' W 008°56'0 0.0
2017-Aug-29 16:58N 38°30' W 008°56'0 0.0
2017-Aug-29 16:28N 38°30' W 008°56'0 0.0
2017-Aug-29 15:49N 38°30' W 008°56'0 0.0
2017-Aug-29 15:28N 38°30' W 008°56'0 0.0
2017-Aug-29 14:58N 38°30' W 008°56'0 0.0
2017-Aug-29 14:28N 38°30' W 008°56'0 0.0
2017-Aug-29 13:52N 38°30' W 008°56'0 0.0
2017-Aug-29 13:28N 38°30' W 008°56'0 0.0
2017-Aug-29 12:55N 38°30' W 008°56'0 0.0
2017-Aug-29 12:28N 38°30' W 008°56'0 0.0
2017-Aug-29 11:58N 38°30' W 008°56'0 0.0
2017-Aug-29 11:28N 38°30' W 008°56'0 0.0
2017-Aug-29 10:58N 38°30' W 008°56'0 0.0
2017-Aug-29 10:28N 38°30' W 008°56'0 0.0
2017-Aug-29 09:58N 38°30' W 008°56'0 0.0
2017-Aug-29 09:28N 38°30' W 008°56'0 0.0
2017-Aug-29 08:55N 38°30' W 008°56'0 0.0
2017-Aug-29 08:28N 38°30' W 008°56'0 0.0
2017-Aug-29 07:58N 38°30' W 008°56'0 0.0
2017-Aug-29 06:01N 38°30' W 008°56'0 0.0
2017-Aug-29 05:55N 38°30' W 008°56'0 0.0
2017-Aug-29 05:25N 38°30' W 008°56'0 0.0
2017-Aug-29 04:55N 38°30' W 008°56'0 0.0
2017-Aug-29 04:28N 38°30' W 008°56'0 0.0
2017-Aug-29 03:58N 38°30' W 008°56'0 0.0
2017-Aug-29 03:28N 38°30' W 008°56'0 0.0
2017-Aug-29 02:58N 38°30' W 008°56'0 0.0
2017-Aug-29 02:25N 38°30' W 008°56'0 0.0
2017-Aug-29 01:58N 38°30' W 008°56'0 0.0
2017-Aug-29 01:28N 38°30' W 008°56'0 0.0
2017-Aug-29 00:58N 38°30' W 008°56'0 0.0
2017-Aug-29 00:28N 38°30' W 008°56'0 0.0
2017-Aug-28 23:58N 38°30' W 008°56'0 0.0
2017-Aug-28 23:28N 38°30' W 008°56'0 0.0
2017-Aug-28 22:58N 38°30' W 008°56'0 0.0
2017-Aug-28 22:28N 38°30' W 008°56'0 0.0
2017-Aug-28 21:58N 38°30' W 008°56'0 0.0
2017-Aug-28 21:25N 38°30' W 008°56'0 0.0
2017-Aug-28 20:58N 38°30' W 008°56'0 0.0
2017-Aug-28 20:25N 38°30' W 008°56'0 0.0
2017-Aug-28 19:58N 38°30' W 008°56'0 0.0
2017-Aug-28 19:28N 38°30' W 008°56'0 0.0
2017-Aug-28 18:58N 38°30' W 008°56'0 0.0
2017-Aug-28 18:28N 38°30' W 008°56'0 0.0
2017-Aug-28 17:58N 38°30' W 008°56'0 0.0
2017-Aug-28 17:28N 38°30' W 008°56'0 0.0
2017-Aug-28 16:58N 38°30' W 008°56'0 0.0
2017-Aug-28 16:28N 38°30' W 008°56'0 0.0
2017-Aug-28 15:58N 38°30' W 008°56'0 0.0
2017-Aug-28 15:28N 38°30' W 008°56'0 0.0
2017-Aug-28 14:55N 38°30' W 008°56'0 0.0
2017-Aug-28 14:28N 38°30' W 008°56'0 0.0
2017-Aug-28 13:58N 38°30' W 008°56'0 0.0
2017-Aug-28 13:28N 38°30' W 008°56'0 0.0
2017-Aug-28 12:58N 38°30' W 008°56'0 0.0
2017-Aug-28 12:28N 38°30' W 008°56'0 0.0
2017-Aug-28 11:58N 38°30' W 008°56'0 0.0
2017-Aug-28 11:28N 38°30' W 008°56'0 0.0
2017-Aug-28 10:55N 38°30' W 008°56'0 0.0
2017-Aug-28 10:28N 38°30' W 008°56'0 0.0
2017-Aug-28 09:58N 38°30' W 008°56'0 0.0
2017-Aug-28 09:28N 38°30' W 008°56'0 0.0
2017-Aug-28 08:58N 38°30' W 008°56'0 0.0
2017-Aug-28 08:28N 38°30' W 008°56'0 0.0
2017-Aug-28 07:58N 38°30' W 008°56'0 0.0
2017-Aug-28 07:28N 38°30' W 008°56'0 0.0
2017-Aug-28 06:58N 38°30' W 008°56'0 0.0
2017-Aug-28 06:28N 38°30' W 008°56'0 0.0
2017-Aug-28 05:58N 38°30' W 008°56'0 0.0
2017-Aug-28 05:28N 38°30' W 008°56'0 0.0
2017-Aug-28 04:58N 38°30' W 008°56'0 0.0
2017-Aug-28 04:25N 38°30' W 008°56'0 0.0
2017-Aug-28 03:58N 38°30' W 008°56'0 0.0
2017-Aug-28 03:28N 38°30' W 008°56'0 0.0
2017-Aug-28 02:58N 38°30' W 008°56'0 0.0
2017-Aug-28 02:25N 38°30' W 008°56'0 0.0
2017-Aug-28 01:58N 38°30' W 008°56'0 0.0
2017-Aug-28 01:28N 38°30' W 008°56'0 0.0
2017-Aug-28 00:58N 38°30' W 008°56'0 0.0
2017-Aug-28 00:28N 38°30' W 008°56'0 0.0
2017-Aug-27 23:58N 38°30' W 008°56'0 0.0
2017-Aug-27 23:28N 38°30' W 008°56'0 0.0
2017-Aug-27 22:58N 38°30' W 008°56'0 0.0
2017-Aug-27 22:28N 38°30' W 008°56'0 0.0
2017-Aug-27 21:58N 38°30' W 008°56'0 0.0
2017-Aug-27 21:28N 38°30' W 008°56'0 0.0
2017-Aug-27 20:58N 38°30' W 008°56'0 0.0
2017-Aug-27 20:28N 38°30' W 008°56'0 0.0
2017-Aug-27 19:58N 38°30' W 008°56'0 0.0
2017-Aug-27 19:28N 38°30' W 008°56'0 0.0
2017-Aug-27 18:58N 38°30' W 008°56'0 0.0
2017-Aug-27 18:28N 38°30' W 008°56'0 0.0
2017-Aug-27 17:58N 38°30' W 008°56'0 0.0
2017-Aug-27 17:28N 38°30' W 008°56'0 0.0
2017-Aug-27 16:58N 38°30' W 008°56'0 0.0
2017-Aug-27 16:25N 38°30' W 008°56'0 0.0
2017-Aug-27 15:58N 38°30' W 008°56'0 0.0
2017-Aug-27 15:28N 38°30' W 008°56'0 0.0
2017-Aug-27 14:58N 38°30' W 008°56'0 0.0
2017-Aug-27 14:28N 38°30' W 008°56'0 0.0
2017-Aug-27 13:58N 38°30' W 008°56'0 0.0
2017-Aug-27 13:28N 38°30' W 008°56'0 0.0
2017-Aug-27 12:58N 38°30' W 008°56'0 0.0
2017-Aug-27 12:28N 38°30' W 008°56'0 0.0
2017-Aug-27 11:58N 38°30' W 008°56'0 0.0
2017-Aug-27 11:28N 38°30' W 008°56'0 0.0
2017-Aug-27 10:58N 38°30' W 008°56'0 0.0
2017-Aug-27 10:25N 38°30' W 008°56'0 0.0
2017-Aug-27 09:46N 38°30' W 008°56'0 0.0
2017-Aug-27 09:28N 38°30' W 008°56'0 0.0
2017-Aug-27 08:58N 38°30' W 008°56'0 0.0
2017-Aug-27 08:28N 38°30' W 008°56'0 0.0
2017-Aug-27 07:58N 38°30' W 008°56'0 0.0
2017-Aug-27 07:25N 38°30' W 008°56'0 0.0
2017-Aug-27 06:58N 38°30' W 008°56'0 0.0
2017-Aug-27 06:28N 38°30' W 008°56'0 0.4
2017-Aug-27 05:59N 38°30' W 008°56'2 3.1
2017-Aug-27 05:21N 38°31' W 008°54'0 0.0
2017-Aug-27 05:00N 38°31' W 008°54'0 0.0
2017-Aug-27 04:24N 38°31' W 008°54'0 0.0
2017-Aug-27 04:00N 38°31' W 008°54'0 0.0
2017-Aug-27 03:30N 38°31' W 008°54'0 0.0
2017-Aug-27 03:00N 38°31' W 008°54'0 0.0
2017-Aug-27 02:30N 38°31' W 008°54'0 0.0
2017-Aug-27 01:48N 38°31' W 008°54'0 0.0
2017-Aug-27 01:30N 38°31' W 008°54'0 0.0
2017-Aug-27 00:48N 38°31' W 008°54'0 0.0
2017-Aug-27 00:27N 38°31' W 008°54'0 0.0
2017-Aug-27 00:00N 38°31' W 008°54'0 0.0
2017-Aug-26 23:30N 38°31' W 008°54'0 0.1
2017-Aug-26 21:54N 38°31' W 008°54'0 0.0
2017-Aug-26 21:30N 38°31' W 008°54'0 0.0
2017-Aug-26 21:00N 38°31' W 008°54'0 0.0
2017-Aug-26 20:30N 38°31' W 008°54'0 0.1
2017-Aug-26 19:57N 38°31' W 008°54'0 0.1
2017-Aug-26 19:30N 38°31' W 008°54'0 0.1
2017-Aug-26 18:54N 38°31' W 008°54'0 0.1
2017-Aug-26 18:30N 38°31' W 008°54'0 0.0
2017-Aug-26 18:00N 38°31' W 008°54'0 0.0
2017-Aug-26 17:30N 38°31' W 008°54'0 0.0
2017-Aug-26 17:00N 38°31' W 008°54'0 0.0
2017-Aug-26 16:30N 38°31' W 008°54'0 0.0
2017-Aug-26 16:00N 38°31' W 008°54'0 0.0
2017-Aug-26 15:30N 38°31' W 008°54'0 0.0
2017-Aug-26 15:00N 38°31' W 008°54'0 0.0
2017-Aug-26 14:00N 38°31' W 008°54'0 0.0
2017-Aug-26 13:30N 38°31' W 008°54'0 0.0
2017-Aug-26 13:00N 38°31' W 008°54'0 0.0
2017-Aug-26 12:30N 38°31' W 008°54'0 0.0
2017-Aug-26 12:00N 38°31' W 008°54'0 0.0
2017-Aug-26 11:30N 38°31' W 008°54'0 0.1
2017-Aug-26 10:36N 38°31' W 008°54'0 0.1
2017-Aug-26 10:30N 38°31' W 008°54'0 0.1
2017-Aug-26 09:57N 38°31' W 008°54'0 0.1
2017-Aug-26 09:27N 38°31' W 008°54'0 0.0
2017-Aug-26 08:57N 38°31' W 008°54'0 0.0
2017-Aug-26 08:27N 38°31' W 008°54'0 0.0
2017-Aug-26 08:00N 38°31' W 008°54'0 0.0
2017-Aug-26 07:30N 38°31' W 008°54'0 0.1
2017-Aug-26 07:00N 38°31' W 008°54'0 0.0
2017-Aug-26 06:27N 38°31' W 008°54'0 0.1
2017-Aug-26 06:00N 38°31' W 008°54'0 0.0
2017-Aug-26 05:30N 38°31' W 008°54'0 0.0
2017-Aug-26 04:54N 38°31' W 008°54'0 0.0
2017-Aug-26 04:30N 38°31' W 008°54'0 0.0
2017-Aug-26 04:00N 38°31' W 008°54'0 0.0
2017-Aug-26 03:30N 38°31' W 008°54'0 0.0
2017-Aug-26 03:00N 38°31' W 008°54'0 0.0
2017-Aug-26 02:30N 38°31' W 008°54'0 0.0
2017-Aug-26 01:57N 38°31' W 008°54'0 0.0
2017-Aug-26 01:30N 38°31' W 008°54'0 0.0
2017-Aug-26 01:00N 38°31' W 008°54'0 0.0
2017-Aug-26 00:30N 38°31' W 008°54'0 0.0
2017-Aug-26 00:00N 38°31' W 008°54'0 0.1
2017-Aug-25 23:30N 38°31' W 008°54'0 0.1
2017-Aug-25 22:57N 38°31' W 008°54'0 0.0
2017-Aug-25 22:30N 38°31' W 008°54'0 0.0
2017-Aug-25 21:57N 38°31' W 008°54'0 0.0
2017-Aug-25 21:30N 38°31' W 008°54'0 0.0
2017-Aug-25 21:00N 38°31' W 008°54'0 0.0
2017-Aug-25 20:30N 38°31' W 008°54'0 0.0
2017-Aug-25 19:54N 38°31' W 008°54'0 0.0
2017-Aug-25 19:30N 38°31' W 008°54'0 0.1
2017-Aug-25 19:00N 38°31' W 008°54'0 0.2
2017-Aug-25 18:30N 38°31' W 008°54'0 0.1
2017-Aug-25 17:57N 38°31' W 008°54'0 0.1
2017-Aug-25 17:30N 38°31' W 008°54'0 0.0
2017-Aug-25 17:00N 38°31' W 008°54'0 0.0
2017-Aug-25 16:30N 38°31' W 008°54'0 0.0
2017-Aug-25 16:00N 38°31' W 008°54'0 0.0
2017-Aug-25 15:30N 38°31' W 008°54'0 0.0
2017-Aug-25 15:00N 38°31' W 008°54'0 0.0
2017-Aug-25 14:30N 38°31' W 008°54'0 0.0
2017-Aug-25 13:30N 38°31' W 008°54'0 0.0
2017-Aug-25 13:00N 38°31' W 008°54'0 0.0
2017-Aug-25 12:30N 38°31' W 008°54'0 0.0
2017-Aug-25 12:00N 38°31' W 008°54'0 0.0
2017-Aug-25 11:30N 38°31' W 008°54'0 0.2
2017-Aug-25 11:00N 38°31' W 008°54'0 0.2
2017-Aug-25 10:30N 38°31' W 008°54'0 0.0
2017-Aug-25 09:54N 38°31' W 008°54'0 0.0
2017-Aug-25 09:30N 38°31' W 008°54'0 0.0
2017-Aug-25 08:57N 38°31' W 008°54'0 0.0
2017-Aug-25 08:24N 38°31' W 008°54'0 0.0
2017-Aug-25 08:00N 38°31' W 008°54'0 0.0
2017-Aug-25 07:30N 38°31' W 008°54'0 0.0
2017-Aug-25 06:54N 38°31' W 008°54'0 0.0
2017-Aug-25 06:30N 38°31' W 008°54'0 0.1
2017-Aug-25 06:00N 38°31' W 008°54'0 0.1
2017-Aug-25 05:27N 38°31' W 008°54'0 0.1
2017-Aug-25 05:00N 38°31' W 008°54'0 0.0
2017-Aug-25 04:12N 38°31' W 008°54'0 0.0
2017-Aug-25 03:57N 38°31' W 008°54'0 0.0
2017-Aug-25 03:30N 38°31' W 008°54'0 0.0
2017-Aug-25 02:51N 38°31' W 008°54'0 0.0
2017-Aug-25 02:30N 38°31' W 008°54'0 0.0
2017-Aug-25 01:45N 38°31' W 008°54'0 0.0
2017-Aug-25 01:27N 38°31' W 008°54'0 0.0
2017-Aug-25 01:00N 38°31' W 008°54'0 0.0
2017-Aug-25 00:30N 38°31' W 008°54'0 0.0
2017-Aug-24 23:51N 38°31' W 008°54'0 0.0
2017-Aug-24 23:30N 38°31' W 008°54'0 0.1
2017-Aug-24 23:00N 38°31' W 008°54'0 0.1
2017-Aug-24 22:30N 38°31' W 008°54'0 0.0
2017-Aug-24 22:00N 38°31' W 008°54'0 0.1
2017-Aug-24 21:18N 38°31' W 008°54'0 0.0
2017-Aug-24 21:00N 38°31' W 008°54'0 0.0
2017-Aug-24 20:30N 38°31' W 008°54'0 0.0
2017-Aug-24 19:54N 38°31' W 008°54'0 0.0
2017-Aug-24 19:24N 38°31' W 008°54'  

Dump ship's entire track history